sensor_id;sensor_type;location;lat;lon;timestamp;temperature;humidity
71304;DHT22;59091;47.446;19.148;2023-04-25T00:02:11;13.27;74.70
71304;DHT22;59091;47.446;19.148;2023-04-25T00:04:36;13.33;74.68
71304;DHT22;59091;47.446;19.148;2023-04-25T00:07:03;13.33;74.52
71304;DHT22;59091;47.446;19.148;2023-04-25T00:09:29;13.34;74.16
71304;DHT22;59091;47.446;19.148;2023-04-25T00:11:54;13.26;74.49
71304;DHT22;59091;47.446;19.148;2023-04-25T00:14:19;13.20;74.02
71304;DHT22;59091;47.446;19.148;2023-04-25T00:16:45;13.21;73.90
71304;DHT22;59091;47.446;19.148;2023-04-25T00:19:11;13.20;73.68
71304;DHT22;59091;47.446;19.148;2023-04-25T00:21:36;13.33;73.65
71304;DHT22;59091;47.446;19.148;2023-04-25T00:24:06;13.39;73.52
71304;DHT22;59091;47.446;19.148;2023-04-25T00:26:31;13.46;73.34
71304;DHT22;59091;47.446;19.148;2023-04-25T00:28:57;13.48;72.83
71304;DHT22;59091;47.446;19.148;2023-04-25T00:31:22;13.41;72.28
71304;DHT22;59091;47.446;19.148;2023-04-25T00:33:48;13.31;72.62
71304;DHT22;59091;47.446;19.148;2023-04-25T00:36:13;13.28;72.65
71304;DHT22;59091;47.446;19.148;2023-04-25T00:38:39;13.39;72.14
71304;DHT22;59091;47.446;19.148;2023-04-25T00:41:07;13.20;72.43
71304;DHT22;59091;47.446;19.148;2023-04-25T00:43:33;13.19;72.18
71304;DHT22;59091;47.446;19.148;2023-04-25T00:46:00;13.14;72.08
71304;DHT22;59091;47.446;19.148;2023-04-25T00:48:25;13.00;72.42
71304;DHT22;59091;47.446;19.148;2023-04-25T00:50:53;13.03;72.92
71304;DHT22;59091;47.446;19.148;2023-04-25T00:53:21;13.03;72.79
71304;DHT22;59091;47.446;19.148;2023-04-25T00:55:47;13.03;72.91
71304;DHT22;59091;47.446;19.148;2023-04-25T00:58:13;13.04;73.06
71304;DHT22;59091;47.446;19.148;2023-04-25T01:00:39;13.10;72.99
71304;DHT22;59091;47.446;19.148;2023-04-25T01:03:06;12.93;72.70
71304;DHT22;59091;47.446;19.148;2023-04-25T01:05:31;12.93;73.22
71304;DHT22;59091;47.446;19.148;2023-04-25T01:07:57;12.99;72.76
71304;DHT22;59091;47.446;19.148;2023-04-25T01:10:22;13.00;72.71
71304;DHT22;59091;47.446;19.148;2023-04-25T01:12:48;12.88;72.66
71304;DHT22;59091;47.446;19.148;2023-04-25T01:15:13;12.89;72.78
71304;DHT22;59091;47.446;19.148;2023-04-25T01:17:40;12.88;72.94
71304;DHT22;59091;47.446;19.148;2023-04-25T01:20:06;12.79;72.79
71304;DHT22;59091;47.446;19.148;2023-04-25T01:22:32;12.92;72.34
71304;DHT22;59091;47.446;19.148;2023-04-25T01:24:59;12.93;72.32
71304;DHT22;59091;47.446;19.148;2023-04-25T01:27:26;12.88;72.24
71304;DHT22;59091;47.446;19.148;2023-04-25T01:29:54;12.89;72.11
71304;DHT22;59091;47.446;19.148;2023-04-25T01:32:19;12.93;72.05
71304;DHT22;59091;47.446;19.148;2023-04-25T01:34:45;12.95;72.09
71304;DHT22;59091;47.446;19.148;2023-04-25T01:37:11;12.82;72.36
71304;DHT22;59091;47.446;19.148;2023-04-25T01:39:37;12.93;72.39
71304;DHT22;59091;47.446;19.148;2023-04-25T01:42:02;12.95;72.36
71304;DHT22;59091;47.446;19.148;2023-04-25T01:44:28;12.89;72.43
71304;DHT22;59091;47.446;19.148;2023-04-25T01:46:53;12.90;72.59
71304;DHT22;59091;47.446;19.148;2023-04-25T01:49:19;12.93;72.57
71304;DHT22;59091;47.446;19.148;2023-04-25T01:51:44;12.90;72.83
71304;DHT22;59091;47.446;19.148;2023-04-25T01:54:10;12.68;73.27
71304;DHT22;59091;47.446;19.148;2023-04-25T01:56:37;12.72;73.18
71304;DHT22;59091;47.446;19.148;2023-04-25T01:59:03;12.69;73.39
71304;DHT22;59091;47.446;19.148;2023-04-25T02:01:29;12.76;73.32
71304;DHT22;59091;47.446;19.148;2023-04-25T02:03:55;12.69;72.97
71304;DHT22;59091;47.446;19.148;2023-04-25T02:06:20;12.68;73.35
71304;DHT22;59091;47.446;19.148;2023-04-25T02:08:46;12.52;73.36
71304;DHT22;59091;47.446;19.148;2023-04-25T02:11:11;12.59;73.53
71304;DHT22;59091;47.446;19.148;2023-04-25T02:13:37;12.52;73.43
71304;DHT22;59091;47.446;19.148;2023-04-25T02:16:02;12.58;73.13
71304;DHT22;59091;47.446;19.148;2023-04-25T02:18:28;12.52;72.87
71304;DHT22;59091;47.446;19.148;2023-04-25T02:20:53;12.63;72.97
71304;DHT22;59091;47.446;19.148;2023-04-25T02:23:19;12.52;72.81
71304;DHT22;59091;47.446;19.148;2023-04-25T02:25:45;12.55;72.60
71304;DHT22;59091;47.446;19.148;2023-04-25T02:28:10;12.73;72.16
71304;DHT22;59091;47.446;19.148;2023-04-25T02:30:36;12.65;72.27
71304;DHT22;59091;47.446;19.148;2023-04-25T02:33:01;12.72;71.99
71304;DHT22;59091;47.446;19.148;2023-04-25T02:35:27;12.58;71.87
71304;DHT22;59091;47.446;19.148;2023-04-25T02:37:52;12.52;71.90
71304;DHT22;59091;47.446;19.148;2023-04-25T02:40:18;12.60;71.70
71304;DHT22;59091;47.446;19.148;2023-04-25T02:42:43;12.59;71.39
71304;DHT22;59091;47.446;19.148;2023-04-25T02:45:11;12.63;71.08
71304;DHT22;59091;47.446;19.148;2023-04-25T02:47:36;12.80;70.84
71304;DHT22;59091;47.446;19.148;2023-04-25T02:50:02;12.63;70.42
71304;DHT22;59091;47.446;19.148;2023-04-25T02:52:28;12.76;70.27
71304;DHT22;59091;47.446;19.148;2023-04-25T02:54:53;12.73;70.19
71304;DHT22;59091;47.446;19.148;2023-04-25T02:57:19;12.76;69.66
71304;DHT22;59091;47.446;19.148;2023-04-25T02:59:44;12.70;69.56
71304;DHT22;59091;47.446;19.148;2023-04-25T03:02:09;12.76;68.96
71304;DHT22;59091;47.446;19.148;2023-04-25T03:04:35;12.90;68.62
71304;DHT22;59091;47.446;19.148;2023-04-25T03:07:00;12.97;68.58
71304;DHT22;59091;47.446;19.148;2023-04-25T03:09:26;12.95;68.02
71304;DHT22;59091;47.446;19.148;2023-04-25T03:11:51;12.86;67.76
71304;DHT22;59091;47.446;19.148;2023-04-25T03:14:17;12.97;67.76
71304;DHT22;59091;47.446;19.148;2023-04-25T03:16:42;12.76;68.25
71304;DHT22;59091;47.446;19.148;2023-04-25T03:19:08;12.68;68.55
71304;DHT22;59091;47.446;19.148;2023-04-25T03:21:34;12.56;68.72
71304;DHT22;59091;47.446;19.148;2023-04-25T03:24:01;12.58;69.29
71304;DHT22;59091;47.446;19.148;2023-04-25T03:26:27;12.60;69.48
71304;DHT22;59091;47.446;19.148;2023-04-25T03:28:53;12.55;69.85
71304;DHT22;59091;47.446;19.148;2023-04-25T03:31:19;12.49;69.97
71304;DHT22;59091;47.446;19.148;2023-04-25T03:33:44;12.58;69.93
71304;DHT22;59091;47.446;19.148;2023-04-25T03:36:10;12.42;70.28
71304;DHT22;59091;47.446;19.148;2023-04-25T03:38:35;12.46;70.19
71304;DHT22;59091;47.446;19.148;2023-04-25T03:41:02;12.46;69.99
71304;DHT22;59091;47.446;19.148;2023-04-25T03:43:27;12.52;69.77
71304;DHT22;59091;47.446;19.148;2023-04-25T03:45:53;12.48;69.79
71304;DHT22;59091;47.446;19.148;2023-04-25T03:48:18;12.48;69.70
71304;DHT22;59091;47.446;19.148;2023-04-25T03:50:47;12.44;69.65
71304;DHT22;59091;47.446;19.148;2023-04-25T03:53:12;12.35;69.68
71304;DHT22;59091;47.446;19.148;2023-04-25T03:55:37;12.31;69.94
71304;DHT22;59091;47.446;19.148;2023-04-25T03:58:03;12.28;69.97
71304;DHT22;59091;47.446;19.148;2023-04-25T04:00:28;12.38;69.97
71304;DHT22;59091;47.446;19.148;2023-04-25T04:02:54;12.37;69.96
71304;DHT22;59091;47.446;19.148;2023-04-25T04:05:19;12.29;70.29
71304;DHT22;59091;47.446;19.148;2023-04-25T04:07:44;12.31;70.02
71304;DHT22;59091;47.446;19.148;2023-04-25T04:10:10;12.11;70.72
71304;DHT22;59091;47.446;19.148;2023-04-25T04:12:36;12.14;70.62
71304;DHT22;59091;47.446;19.148;2023-04-25T04:15:03;12.17;70.76
71304;DHT22;59091;47.446;19.148;2023-04-25T04:17:29;12.16;70.38
71304;DHT22;59091;47.446;19.148;2023-04-25T04:19:54;12.24;70.35
71304;DHT22;59091;47.446;19.148;2023-04-25T04:22:20;12.21;70.42
71304;DHT22;59091;47.446;19.148;2023-04-25T04:24:45;12.22;70.32
71304;DHT22;59091;47.446;19.148;2023-04-25T04:27:12;12.21;69.98
71304;DHT22;59091;47.446;19.148;2023-04-25T04:29:38;12.42;69.38
71304;DHT22;59091;47.446;19.148;2023-04-25T04:32:03;12.41;69.57
71304;DHT22;59091;47.446;19.148;2023-04-25T04:34:30;12.22;70.30
71304;DHT22;59091;47.446;19.148;2023-04-25T04:36:56;12.18;70.33
71304;DHT22;59091;47.446;19.148;2023-04-25T04:39:22;12.21;71.64
71304;DHT22;59091;47.446;19.148;2023-04-25T04:41:47;12.16;71.39
71304;DHT22;59091;47.446;19.148;2023-04-25T04:44:13;12.04;71.80
71304;DHT22;59091;47.446;19.148;2023-04-25T04:46:40;12.07;71.75
71304;DHT22;59091;47.446;19.148;2023-04-25T04:49:08;12.13;71.39
71304;DHT22;59091;47.446;19.148;2023-04-25T04:51:34;12.08;72.79
71304;DHT22;59091;47.446;19.148;2023-04-25T04:53:59;12.07;71.85
71304;DHT22;59091;47.446;19.148;2023-04-25T04:56:28;12.07;72.01
71304;DHT22;59091;47.446;19.148;2023-04-25T04:58:56;12.25;72.75
71304;DHT22;59091;47.446;19.148;2023-04-25T05:01:22;12.11;72.04
71304;DHT22;59091;47.446;19.148;2023-04-25T05:03:47;12.07;73.38
71304;DHT22;59091;47.446;19.148;2023-04-25T05:06:13;12.16;71.91
71304;DHT22;59091;47.446;19.148;2023-04-25T05:08:38;12.11;72.15
71304;DHT22;59091;47.446;19.148;2023-04-25T05:11:04;12.42;78.67
71304;DHT22;59091;47.446;19.148;2023-04-25T05:13:29;12.46;71.53
71304;DHT22;59091;47.446;19.148;2023-04-25T05:15:55;12.14;71.77
71304;DHT22;59091;47.446;19.148;2023-04-25T05:18:20;11.95;73.51
71304;DHT22;59091;47.446;19.148;2023-04-25T05:20:46;11.98;73.42
71304;DHT22;59091;47.446;19.148;2023-04-25T05:23:11;12.00;73.69
71304;DHT22;59091;47.446;19.148;2023-04-25T05:25:36;12.11;73.64
71304;DHT22;59091;47.446;19.148;2023-04-25T05:28:02;12.07;74.31
71304;DHT22;59091;47.446;19.148;2023-04-25T05:30:27;12.08;74.40
71304;DHT22;59091;47.446;19.148;2023-04-25T05:32:53;12.02;74.87
71304;DHT22;59091;47.446;19.148;2023-04-25T05:35:18;11.87;75.16
71304;DHT22;59091;47.446;19.148;2023-04-25T05:37:44;11.88;76.27
71304;DHT22;59091;47.446;19.148;2023-04-25T05:40:10;11.67;74.92
71304;DHT22;59091;47.446;19.148;2023-04-25T05:42:35;11.65;76.35
71304;DHT22;59091;47.446;19.148;2023-04-25T05:45:00;11.84;75.65
71304;DHT22;59091;47.446;19.148;2023-04-25T05:47:26;11.60;75.93
71304;DHT22;59091;47.446;19.148;2023-04-25T05:49:52;11.56;76.70
71304;DHT22;59091;47.446;19.148;2023-04-25T05:52:18;11.52;77.08
71304;DHT22;59091;47.446;19.148;2023-04-25T05:54:43;11.53;77.22
71304;DHT22;59091;47.446;19.148;2023-04-25T05:57:08;11.55;78.05
71304;DHT22;59091;47.446;19.148;2023-04-25T05:59:34;11.52;78.42
71304;DHT22;59091;47.446;19.148;2023-04-25T06:02:00;11.30;78.61
71304;DHT22;59091;47.446;19.148;2023-04-25T06:04:25;11.46;78.54
71304;DHT22;59091;47.446;19.148;2023-04-25T06:06:51;11.32;78.78
71304;DHT22;59091;47.446;19.148;2023-04-25T06:09:17;11.12;79.15
71304;DHT22;59091;47.446;19.148;2023-04-25T06:11:42;11.19;79.03
71304;DHT22;59091;47.446;19.148;2023-04-25T06:14:07;11.08;80.41
71304;DHT22;59091;47.446;19.148;2023-04-25T06:16:33;11.16;79.89
71304;DHT22;59091;47.446;19.148;2023-04-25T06:18:58;11.29;79.58
71304;DHT22;59091;47.446;19.148;2023-04-25T06:21:24;11.26;79.68
71304;DHT22;59091;47.446;19.148;2023-04-25T06:23:49;11.15;79.74
71304;DHT22;59091;47.446;19.148;2023-04-25T06:26:14;11.33;79.44
71304;DHT22;59091;47.446;19.148;2023-04-25T06:28:40;11.43;79.47
71304;DHT22;59091;47.446;19.148;2023-04-25T06:31:05;11.57;79.63
71304;DHT22;59091;47.446;19.148;2023-04-25T06:33:31;11.60;79.75
71304;DHT22;59091;47.446;19.148;2023-04-25T06:35:56;11.83;78.52
71304;DHT22;59091;47.446;19.148;2023-04-25T06:38:22;11.78;79.02
71304;DHT22;59091;47.446;19.148;2023-04-25T06:40:47;12.11;78.49
71304;DHT22;59091;47.446;19.148;2023-04-25T06:43:13;12.27;77.79
71304;DHT22;59091;47.446;19.148;2023-04-25T06:45:38;12.41;77.31
71304;DHT22;59091;47.446;19.148;2023-04-25T06:48:03;12.17;76.96
71304;DHT22;59091;47.446;19.148;2023-04-25T06:50:29;12.34;76.66
71304;DHT22;59091;47.446;19.148;2023-04-25T06:52:54;12.21;77.71
71304;DHT22;59091;47.446;19.148;2023-04-25T06:55:20;12.59;76.72
71304;DHT22;59091;47.446;19.148;2023-04-25T06:57:45;12.50;76.11
71304;DHT22;59091;47.446;19.148;2023-04-25T07:00:11;12.45;76.79
71304;DHT22;59091;47.446;19.148;2023-04-25T07:02:37;12.49;76.64
71304;DHT22;59091;47.446;19.148;2023-04-25T07:05:03;12.41;76.71
71304;DHT22;59091;47.446;19.148;2023-04-25T07:07:29;12.70;76.49
71304;DHT22;59091;47.446;19.148;2023-04-25T07:09:56;12.79;75.64
71304;DHT22;59091;47.446;19.148;2023-04-25T07:12:21;12.90;75.31
71304;DHT22;59091;47.446;19.148;2023-04-25T07:14:47;13.09;75.03
71304;DHT22;59091;47.446;19.148;2023-04-25T07:17:12;13.27;74.51
71304;DHT22;59091;47.446;19.148;2023-04-25T07:19:38;13.44;73.73
71304;DHT22;59091;47.446;19.148;2023-04-25T07:22:05;13.30;73.33
71304;DHT22;59091;47.446;19.148;2023-04-25T07:24:31;13.24;73.19
71304;DHT22;59091;47.446;19.148;2023-04-25T07:26:56;13.13;73.76
71304;DHT22;59091;47.446;19.148;2023-04-25T07:29:23;13.28;73.10
71304;DHT22;59091;47.446;19.148;2023-04-25T07:31:48;13.54;72.68
71304;DHT22;59091;47.446;19.148;2023-04-25T07:34:14;13.06;71.66
71304;DHT22;59091;47.446;19.148;2023-04-25T07:36:40;13.19;72.08
71304;DHT22;59091;47.446;19.148;2023-04-25T07:39:06;13.16;72.57
71304;DHT22;59091;47.446;19.148;2023-04-25T07:41:32;13.26;72.73
71304;DHT22;59091;47.446;19.148;2023-04-25T07:43:58;13.47;72.77
71304;DHT22;59091;47.446;19.148;2023-04-25T07:46:23;13.39;72.58
71304;DHT22;59091;47.446;19.148;2023-04-25T07:48:49;13.58;72.45
71304;DHT22;59091;47.446;19.148;2023-04-25T07:51:14;13.75;71.67
71304;DHT22;59091;47.446;19.148;2023-04-25T07:53:40;13.89;70.71
71304;DHT22;59091;47.446;19.148;2023-04-25T07:56:06;14.09;70.15
71304;DHT22;59091;47.446;19.148;2023-04-25T07:58:31;13.94;68.62
71304;DHT22;59091;47.446;19.148;2023-04-25T08:00:56;14.30;68.72
71304;DHT22;59091;47.446;19.148;2023-04-25T08:03:22;14.40;67.77
71304;DHT22;59091;47.446;19.148;2023-04-25T08:05:47;14.71;66.69
71304;DHT22;59091;47.446;19.148;2023-04-25T08:08:13;15.17;64.73
71304;DHT22;59091;47.446;19.148;2023-04-25T08:10:38;15.18;64.47
71304;DHT22;59091;47.446;19.148;2023-04-25T08:13:04;15.01;63.44
71304;DHT22;59091;47.446;19.148;2023-04-25T08:15:29;15.46;63.31
71304;DHT22;59091;47.446;19.148;2023-04-25T08:17:55;15.39;63.49
71304;DHT22;59091;47.446;19.148;2023-04-25T08:20:20;15.15;62.71
71304;DHT22;59091;47.446;19.148;2023-04-25T08:22:45;15.20;63.75
71304;DHT22;59091;47.446;19.148;2023-04-25T08:25:11;15.25;62.91
71304;DHT22;59091;47.446;19.148;2023-04-25T08:27:36;15.10;62.52
71304;DHT22;59091;47.446;19.148;2023-04-25T08:30:03;15.27;63.36
71304;DHT22;59091;47.446;19.148;2023-04-25T08:32:28;15.00;62.70
71304;DHT22;59091;47.446;19.148;2023-04-25T08:34:54;15.14;62.52
71304;DHT22;59091;47.446;19.148;2023-04-25T08:37:21;15.14;61.89
71304;DHT22;59091;47.446;19.148;2023-04-25T08:39:46;15.17;63.00
71304;DHT22;59091;47.446;19.148;2023-04-25T08:42:15;15.07;61.45
71304;DHT22;59091;47.446;19.148;2023-04-25T08:44:40;15.17;61.39
71304;DHT22;59091;47.446;19.148;2023-04-25T08:47:06;15.35;62.35
71304;DHT22;59091;47.446;19.148;2023-04-25T08:49:32;15.18;61.52
71304;DHT22;59091;47.446;19.148;2023-04-25T08:52:00;15.34;61.42
71304;DHT22;59091;47.446;19.148;2023-04-25T08:54:27;15.42;61.27
71304;DHT22;59091;47.446;19.148;2023-04-25T08:56:54;15.36;60.51
71304;DHT22;59091;47.446;19.148;2023-04-25T08:59:21;15.22;60.84
71304;DHT22;59091;47.446;19.148;2023-04-25T09:01:49;15.15;66.20
71304;DHT22;59091;47.446;19.148;2023-04-25T09:04:15;15.36;61.06
71304;DHT22;59091;47.446;19.148;2023-04-25T09:06:40;15.51;63.47
71304;DHT22;59091;47.446;19.148;2023-04-25T09:09:08;15.22;59.75
71304;DHT22;59091;47.446;19.148;2023-04-25T09:11:36;15.05;60.08
71304;DHT22;59091;47.446;19.148;2023-04-25T09:14:15;14.98;60.39
71304;DHT22;59091;47.446;19.148;2023-04-25T09:19:29;15.63;60.31
71304;DHT22;59091;47.446;19.148;2023-04-25T09:21:56;15.52;58.46
71304;DHT22;59091;47.446;19.148;2023-04-25T09:24:42;15.45;58.65
71304;DHT22;59091;47.446;19.148;2023-04-25T09:27:10;15.82;59.19
71304;DHT22;59091;47.446;19.148;2023-04-25T09:29:37;15.83;58.46
71304;DHT22;59091;47.446;19.148;2023-04-25T09:32:19;16.00;57.63
71304;DHT22;59091;47.446;19.148;2023-04-25T09:34:56;15.90;56.71
71304;DHT22;59091;47.446;19.148;2023-04-25T09:37:27;16.27;58.20
71304;DHT22;59091;47.446;19.148;2023-04-25T09:39:57;15.96;57.58
71304;DHT22;59091;47.446;19.148;2023-04-25T09:42:29;15.93;57.83
71304;DHT22;59091;47.446;19.148;2023-04-25T09:44:57;16.04;57.84
71304;DHT22;59091;47.446;19.148;2023-04-25T09:47:26;16.54;57.33
71304;DHT22;59091;47.446;19.148;2023-04-25T09:49:52;16.84;56.15
71304;DHT22;59091;47.446;19.148;2023-04-25T09:52:20;16.95;54.80
71304;DHT22;59091;47.446;19.148;2023-04-25T09:54:47;16.96;54.59
71304;DHT22;59091;47.446;19.148;2023-04-25T09:57:31;16.74;54.37
71304;DHT22;59091;47.446;19.148;2023-04-25T09:59:58;16.75;55.16
71304;DHT22;59091;47.446;19.148;2023-04-25T10:02:26;16.76;54.98
71304;DHT22;59091;47.446;19.148;2023-04-25T10:04:55;17.05;53.53
71304;DHT22;59091;47.446;19.148;2023-04-25T10:07:26;17.04;54.94
71304;DHT22;59091;47.446;19.148;2023-04-25T10:10:04;16.89;53.23
71304;DHT22;59091;47.446;19.148;2023-04-25T10:12:30;16.94;52.25
71304;DHT22;59091;47.446;19.148;2023-04-25T10:14:57;17.04;52.96
71304;DHT22;59091;47.446;19.148;2023-04-25T10:17:23;17.18;51.25
71304;DHT22;59091;47.446;19.148;2023-04-25T10:19:48;17.11;50.69
71304;DHT22;59091;47.446;19.148;2023-04-25T10:22:29;16.96;49.98
71304;DHT22;59091;47.446;19.148;2023-04-25T10:24:56;16.92;51.21
71304;DHT22;59091;47.446;19.148;2023-04-25T10:27:22;16.72;51.41
71304;DHT22;59091;47.446;19.148;2023-04-25T10:30:03;16.74;51.43
71304;DHT22;59091;47.446;19.148;2023-04-25T10:32:35;16.37;52.29
71304;DHT22;59091;47.446;19.148;2023-04-25T10:35:30;16.37;53.03
71304;DHT22;59091;47.446;19.148;2023-04-25T10:38:09;16.54;52.59
71304;DHT22;59091;47.446;19.148;2023-04-25T10:40:36;16.25;52.65
71304;DHT22;59091;47.446;19.148;2023-04-25T10:46:02;16.31;51.39
71304;DHT22;59091;47.446;19.148;2023-04-25T10:48:31;16.43;53.35
71304;DHT22;59091;47.446;19.148;2023-04-25T10:51:10;16.72;54.79
71304;DHT22;59091;47.446;19.148;2023-04-25T10:53:36;16.74;51.86
71304;DHT22;59091;47.446;19.148;2023-04-25T10:56:19;17.20;59.40
71304;DHT22;59091;47.446;19.148;2023-04-25T10:58:45;17.40;51.23
71304;DHT22;59091;47.446;19.148;2023-04-25T11:01:13;17.54;54.82
71304;DHT22;59091;47.446;19.148;2023-04-25T11:03:42;18.19;55.94
71304;DHT22;59091;47.446;19.148;2023-04-25T11:06:46;18.68;51.51
71304;DHT22;59091;47.446;19.148;2023-04-25T11:09:03;17.96;48.20
71304;DHT22;59091;47.446;19.148;2023-04-25T11:11:36;18.32;51.63
71304;DHT22;59091;47.446;19.148;2023-04-25T11:14:02;17.54;48.54
71304;DHT22;59091;47.446;19.148;2023-04-25T11:16:27;17.27;49.17
71304;DHT22;59091;47.446;19.148;2023-04-25T11:18:53;17.70;53.24
71304;DHT22;59091;47.446;19.148;2023-04-25T11:21:18;18.01;49.70
71304;DHT22;59091;47.446;19.148;2023-04-25T11:23:46;17.66;47.28
71304;DHT22;59091;47.446;19.148;2023-04-25T11:26:13;17.63;49.38
71304;DHT22;59091;47.446;19.148;2023-04-25T11:28:39;17.46;47.70
71304;DHT22;59091;47.446;19.148;2023-04-25T11:31:04;17.49;50.76
71304;DHT22;59091;47.446;19.148;2023-04-25T11:33:30;17.81;49.45
71304;DHT22;59091;47.446;19.148;2023-04-25T11:35:55;18.11;48.84
71304;DHT22;59091;47.446;19.148;2023-04-25T11:38:25;18.00;45.78
71304;DHT22;59091;47.446;19.148;2023-04-25T11:40:52;17.53;45.47
71304;DHT22;59091;47.446;19.148;2023-04-25T11:43:19;17.40;45.34
71304;DHT22;59091;47.446;19.148;2023-04-25T11:45:49;17.06;45.59
71304;DHT22;59091;47.446;19.148;2023-04-25T11:48:16;16.71;46.49
71304;DHT22;59091;47.446;19.148;2023-04-25T11:50:41;17.14;47.29
71304;DHT22;59091;47.446;19.148;2023-04-25T11:53:07;17.01;46.66
71304;DHT22;59091;47.446;19.148;2023-04-25T11:55:34;17.06;46.94
71304;DHT22;59091;47.446;19.148;2023-04-25T11:58:00;17.14;47.13
71304;DHT22;59091;47.446;19.148;2023-04-25T12:00:26;17.39;46.23
71304;DHT22;59091;47.446;19.148;2023-04-25T12:02:54;17.36;45.84
71304;DHT22;59091;47.446;19.148;2023-04-25T12:05:23;17.05;46.38
71304;DHT22;59091;47.446;19.148;2023-04-25T12:07:49;17.06;47.49
71304;DHT22;59091;47.446;19.148;2023-04-25T12:10:16;17.15;46.69
71304;DHT22;59091;47.446;19.148;2023-04-25T12:12:47;17.23;46.28
71304;DHT22;59091;47.446;19.148;2023-04-25T12:15:23;17.42;46.18
71304;DHT22;59091;47.446;19.148;2023-04-25T12:17:50;17.40;43.46
71304;DHT22;59091;47.446;19.148;2023-04-25T12:20:18;17.32;44.30
71304;DHT22;59091;47.446;19.148;2023-04-25T12:22:53;17.50;45.19
71304;DHT22;59091;47.446;19.148;2023-04-25T12:25:37;17.57;44.15
71304;DHT22;59091;47.446;19.148;2023-04-25T12:28:17;17.74;43.53
71304;DHT22;59091;47.446;19.148;2023-04-25T12:31:06;17.63;45.70
71304;DHT22;59091;47.446;19.148;2023-04-25T12:33:36;18.09;45.25
71304;DHT22;59091;47.446;19.148;2023-04-25T12:36:05;18.19;44.98
71304;DHT22;59091;47.446;19.148;2023-04-25T12:38:41;18.04;44.11
71304;DHT22;59091;47.446;19.148;2023-04-25T12:41:08;17.91;44.40
71304;DHT22;59091;47.446;19.148;2023-04-25T12:43:34;17.96;43.83
71304;DHT22;59091;47.446;19.148;2023-04-25T12:45:59;17.77;42.72
71304;DHT22;59091;47.446;19.148;2023-04-25T12:48:25;18.05;42.89
71304;DHT22;59091;47.446;19.148;2023-04-25T12:50:51;18.08;43.28
71304;DHT22;59091;47.446;19.148;2023-04-25T12:53:18;17.74;42.91
71304;DHT22;59091;47.446;19.148;2023-04-25T12:55:44;17.51;42.60
71304;DHT22;59091;47.446;19.148;2023-04-25T12:58:16;17.36;42.63
71304;DHT22;59091;47.446;19.148;2023-04-25T13:00:42;17.36;41.67
71304;DHT22;59091;47.446;19.148;2023-04-25T13:03:08;17.12;42.77
71304;DHT22;59091;47.446;19.148;2023-04-25T13:05:34;17.18;42.62
71304;DHT22;59091;47.446;19.148;2023-04-25T13:08:00;17.33;42.31
71304;DHT22;59091;47.446;19.148;2023-04-25T13:10:26;17.49;41.76
71304;DHT22;59091;47.446;19.148;2023-04-25T13:12:51;17.43;40.84
71304;DHT22;59091;47.446;19.148;2023-04-25T13:15:17;17.45;41.47
71304;DHT22;59091;47.446;19.148;2023-04-25T13:17:43;17.73;41.85
71304;DHT22;59091;47.446;19.148;2023-04-25T13:20:09;17.94;40.73
71304;DHT22;59091;47.446;19.148;2023-04-25T13:22:35;18.04;40.43
71304;DHT22;59091;47.446;19.148;2023-04-25T13:25:05;18.08;40.98
71304;DHT22;59091;47.446;19.148;2023-04-25T13:27:32;17.91;39.64
71304;DHT22;59091;47.446;19.148;2023-04-25T13:29:59;18.24;38.86
71304;DHT22;59091;47.446;19.148;2023-04-25T13:32:25;18.15;38.88
71304;DHT22;59091;47.446;19.148;2023-04-25T13:34:51;18.15;39.08
71304;DHT22;59091;47.446;19.148;2023-04-25T13:37:16;18.48;40.78
71304;DHT22;59091;47.446;19.148;2023-04-25T13:39:42;18.39;39.95
71304;DHT22;59091;47.446;19.148;2023-04-25T13:42:07;18.34;38.12
71304;DHT22;59091;47.446;19.148;2023-04-25T13:44:33;18.58;38.79
71304;DHT22;59091;47.446;19.148;2023-04-25T13:46:58;18.35;37.54
71304;DHT22;59091;47.446;19.148;2023-04-25T13:49:26;18.21;37.52
71304;DHT22;59091;47.446;19.148;2023-04-25T13:51:51;18.12;38.00
71304;DHT22;59091;47.446;19.148;2023-04-25T13:54:16;18.14;38.65
71304;DHT22;59091;47.446;19.148;2023-04-25T13:56:42;18.17;38.30
71304;DHT22;59091;47.446;19.148;2023-04-25T13:59:07;18.14;36.77
71304;DHT22;59091;47.446;19.148;2023-04-25T14:01:33;17.96;35.82
71304;DHT22;59091;47.446;19.148;2023-04-25T14:04:00;17.69;35.78
71304;DHT22;59091;47.446;19.148;2023-04-25T14:06:27;17.53;35.66
71304;DHT22;59091;47.446;19.148;2023-04-25T14:08:53;17.73;36.28
71304;DHT22;59091;47.446;19.148;2023-04-25T14:11:19;17.78;35.85
71304;DHT22;59091;47.446;19.148;2023-04-25T14:13:45;17.76;36.03
71304;DHT22;59091;47.446;19.148;2023-04-25T14:16:10;17.73;36.21
71304;DHT22;59091;47.446;19.148;2023-04-25T14:18:36;17.50;36.31
71304;DHT22;59091;47.446;19.148;2023-04-25T14:21:01;17.69;37.02
71304;DHT22;59091;47.446;19.148;2023-04-25T14:23:26;17.69;36.43
71304;DHT22;59091;47.446;19.148;2023-04-25T14:25:52;17.51;35.10
71304;DHT22;59091;47.446;19.148;2023-04-25T14:28:17;17.57;36.27
71304;DHT22;59091;47.446;19.148;2023-04-25T14:30:43;17.63;37.03
71304;DHT22;59091;47.446;19.148;2023-04-25T14:33:08;17.70;37.75
71304;DHT22;59091;47.446;19.148;2023-04-25T14:35:35;17.69;36.35
71304;DHT22;59091;47.446;19.148;2023-04-25T14:38:00;17.86;36.82
71304;DHT22;59091;47.446;19.148;2023-04-25T14:40:26;17.64;37.15
71304;DHT22;59091;47.446;19.148;2023-04-25T14:42:51;17.42;37.86
71304;DHT22;59091;47.446;19.148;2023-04-25T14:45:17;17.40;37.70
71304;DHT22;59091;47.446;19.148;2023-04-25T14:47:43;17.29;37.66
71304;DHT22;59091;47.446;19.148;2023-04-25T14:50:09;17.16;37.88
71304;DHT22;59091;47.446;19.148;2023-04-25T14:52:35;17.16;38.45
71304;DHT22;59091;47.446;19.148;2023-04-25T14:55:00;16.92;38.35
71304;DHT22;59091;47.446;19.148;2023-04-25T14:57:31;17.06;38.51
71304;DHT22;59091;47.446;19.148;2023-04-25T14:59:57;17.18;38.72
71304;DHT22;59091;47.446;19.148;2023-04-25T15:02:24;16.85;38.10
71304;DHT22;59091;47.446;19.148;2023-04-25T15:04:49;16.79;37.95
71304;DHT22;59091;47.446;19.148;2023-04-25T15:07:15;16.78;38.69
71304;DHT22;59091;47.446;19.148;2023-04-25T15:09:41;16.89;39.85
71304;DHT22;59091;47.446;19.148;2023-04-25T15:12:07;16.75;39.03
71304;DHT22;59091;47.446;19.148;2023-04-25T15:14:33;16.82;40.55
71304;DHT22;59091;47.446;19.148;2023-04-25T15:16:59;16.81;39.56
71304;DHT22;59091;47.446;19.148;2023-04-25T15:19:25;16.65;38.76